createdAt,value
2023-03-31T00:01:09.316Z,93340.25
2023-03-31T00:03:39.099Z,93339.91
2023-03-31T00:06:06.970Z,93331.47
2023-03-31T00:08:37.715Z,93330.00
2023-03-31T00:11:07.809Z,93333.16
2023-03-31T00:13:36.902Z,93331.41
2023-03-31T00:16:08.091Z,93323.81
2023-03-31T00:18:36.782Z,93322.06
2023-03-31T00:21:15.083Z,93331.22
2023-03-31T00:23:42.750Z,93328.41
2023-03-31T00:26:10.057Z,93326.41
2023-03-31T00:28:37.297Z,93324.69
2023-03-31T00:31:04.959Z,93333.28
2023-03-31T00:33:32.279Z,93336.53
2023-03-31T00:36:02.476Z,93322.44
2023-03-31T00:38:30.652Z,93333.44
2023-03-31T00:40:59.096Z,93321.03
2023-03-31T00:43:38.227Z,93326.44
2023-03-31T00:46:34.703Z,93309.03
2023-03-31T00:49:02.711Z,93317.22
2023-03-31T00:51:35.289Z,93308.09
2023-03-31T00:54:08.640Z,93299.69
2023-03-31T00:56:40.176Z,93296.91
2023-03-31T00:59:11.226Z,93296.50
2023-03-31T01:01:43.159Z,93297.31
2023-03-31T01:04:12.783Z,93297.09
2023-03-31T01:06:50.538Z,93294.16
2023-03-31T01:09:18.114Z,93291.47
2023-03-31T01:11:48.115Z,93285.28
2023-03-31T01:14:16.984Z,93293.28
2023-03-31T01:16:45.129Z,93292.56
2023-03-31T01:19:26.272Z,93291.41
2023-03-31T01:22:09.482Z,93292.75
2023-03-31T01:24:52.096Z,93295.16
2023-03-31T01:27:42.424Z,93300.66
2023-03-31T01:30:10.137Z,93298.78
2023-03-31T01:33:02.526Z,93299.34
2023-03-31T01:35:50.106Z,93298.19
2023-03-31T01:38:49.711Z,93295.38
2023-03-31T01:41:57.187Z,93298.00
2023-03-31T01:44:33.777Z,93305.78
2023-03-31T01:47:11.350Z,93301.97
2023-03-31T01:50:04.202Z,93308.75
2023-03-31T01:53:01.041Z,93300.56
2023-03-31T01:55:40.879Z,93305.94
2023-03-31T01:58:26.547Z,93317.75
2023-03-31T02:01:13.796Z,93325.44
2023-03-31T02:03:49.181Z,93308.31
2023-03-31T02:06:22.227Z,93303.31
2023-03-31T02:08:57.219Z,93312.06
2023-03-31T02:11:26.481Z,93309.09
2023-03-31T02:13:56.563Z,93309.22
2023-03-31T02:16:28.042Z,93306.88
2023-03-31T02:19:02.710Z,93309.34
2023-03-31T02:21:38.258Z,93317.31
2023-03-31T02:24:12.970Z,93320.88
2023-03-31T02:26:49.932Z,93334.44
2023-03-31T02:29:17.785Z,93322.63
2023-03-31T02:31:58.605Z,93327.50
2023-03-31T02:34:26.776Z,93325.69
2023-03-31T02:36:55.407Z,93338.03
2023-03-31T02:39:28.450Z,93329.69
2023-03-31T02:41:56.944Z,93335.66
2023-03-31T02:44:24.981Z,93334.41
2023-03-31T02:46:53.210Z,93345.59
2023-03-31T02:49:21.798Z,93350.59
2023-03-31T02:52:14.352Z,93357.03
2023-03-31T02:55:19.676Z,93352.78
2023-03-31T02:58:12.751Z,93365.28
2023-03-31T03:00:58.954Z,93362.91
2023-03-31T03:03:56.715Z,93370.03
2023-03-31T03:06:30.365Z,93376.63
2023-03-31T03:09:18.596Z,93373.84
2023-03-31T03:12:04.596Z,93364.88
2023-03-31T03:14:40.948Z,93355.91
2023-03-31T03:17:39.900Z,93356.56
2023-03-31T03:20:09.548Z,93343.88
2023-03-31T03:22:38.791Z,93330.09
2023-03-31T03:25:07.630Z,93332.84
2023-03-31T03:27:36.182Z,93334.94
2023-03-31T03:30:05.845Z,93331.50
2023-03-31T03:32:34.042Z,93331.72
2023-03-31T03:35:02.860Z,93329.25
2023-03-31T03:37:31.035Z,93316.06
2023-03-31T03:39:58.496Z,93312.88
2023-03-31T03:42:25.819Z,93312.66
2023-03-31T03:44:53.554Z,93312.84
2023-03-31T03:47:20.830Z,93300.47
2023-03-31T03:49:49.348Z,93304.84
2023-03-31T03:52:17.473Z,93299.66
2023-03-31T03:54:44.994Z,93303.06
2023-03-31T03:57:12.362Z,93320.25
2023-03-31T03:59:39.943Z,93315.81
2023-03-31T04:02:07.232Z,93310.81
2023-03-31T04:04:35.104Z,93295.75
2023-03-31T04:07:02.525Z,93297.12
2023-03-31T04:09:29.947Z,93293.37
2023-03-31T04:11:57.733Z,93281.44
2023-03-31T04:14:26.179Z,93271.06
2023-03-31T04:16:56.584Z,93273.91
2023-03-31T04:19:26.208Z,93270.22
2023-03-31T04:21:59.031Z,93276.19
2023-03-31T04:24:33.259Z,93275.47
2023-03-31T04:27:03.308Z,93280.59
2023-03-31T04:29:33.917Z,93279.81
2023-03-31T04:32:01.590Z,93287.63
2023-03-31T04:34:35.748Z,93300.75
2023-03-31T04:37:04.822Z,93299.50
2023-03-31T04:39:32.237Z,93292.50
2023-03-31T04:42:00.744Z,93294.44
2023-03-31T04:44:29.190Z,93292.81
2023-03-31T04:46:58.979Z,93293.00
2023-03-31T04:49:26.407Z,93295.53
2023-03-31T04:51:54.226Z,93299.59
2023-03-31T04:54:21.507Z,93291.97
2023-03-31T04:56:48.858Z,93285.47
2023-03-31T04:59:16.587Z,93286.50
2023-03-31T05:01:45.321Z,93289.44
2023-03-31T05:04:13.057Z,93284.38
2023-03-31T05:06:41.271Z,93291.38
2023-03-31T05:09:09.958Z,93289.19
2023-03-31T05:11:38.459Z,93285.53
2023-03-31T05:14:06.382Z,93296.56
2023-03-31T05:16:33.985Z,93300.75
2023-03-31T05:19:01.348Z,93285.66
2023-03-31T05:21:30.801Z,93279.81
2023-03-31T05:23:58.271Z,93278.66
2023-03-31T05:26:26.262Z,93266.75
2023-03-31T05:28:54.975Z,93268.81
2023-03-31T05:31:22.366Z,93256.37
2023-03-31T05:33:49.891Z,93246.25
2023-03-31T05:36:18.038Z,93244.53
2023-03-31T05:38:46.035Z,93242.41
2023-03-31T05:41:13.596Z,93222.59
2023-03-31T05:43:41.349Z,93224.84
2023-03-31T05:46:09.214Z,93214.78
2023-03-31T05:48:38.175Z,93223.22
2023-03-31T05:51:06.274Z,93217.09
2023-03-31T05:53:34.320Z,93219.66
2023-03-31T05:56:04.484Z,93223.25
2023-03-31T05:58:33.920Z,93224.69
2023-03-31T06:01:06.402Z,93235.22
2023-03-31T06:03:35.701Z,93226.66
2023-03-31T06:06:05.905Z,93230.41
2023-03-31T06:08:34.074Z,93212.91
2023-03-31T06:11:05.390Z,93232.87
2023-03-31T06:13:33.689Z,93220.81
2023-03-31T06:16:01.692Z,93223.94
2023-03-31T06:18:32.002Z,93224.34
2023-03-31T06:20:59.469Z,93226.84
2023-03-31T06:23:27.826Z,93232.06
2023-03-31T06:25:55.496Z,93232.94
2023-03-31T06:28:22.901Z,93235.13
2023-03-31T06:30:50.648Z,93226.31
2023-03-31T06:33:17.961Z,93227.22
2023-03-31T06:35:45.635Z,93219.97
2023-03-31T06:38:13.384Z,93224.25
2023-03-31T06:40:42.245Z,93224.00
2023-03-31T06:43:09.794Z,93229.72
2023-03-31T06:45:38.099Z,93226.88
2023-03-31T06:48:06.181Z,93232.06
2023-03-31T06:50:33.468Z,93231.84
2023-03-31T06:53:01.763Z,93217.63
2023-03-31T06:55:29.262Z,93219.22
2023-03-31T06:57:56.752Z,93224.63
2023-03-31T07:00:27.280Z,93234.19
2023-03-31T07:02:55.458Z,93229.66
2023-03-31T07:05:29.526Z,93213.25
2023-03-31T07:07:59.162Z,93230.53
2023-03-31T07:10:29.254Z,93230.69
2023-03-31T07:12:57.289Z,93226.66
2023-03-31T07:15:26.059Z,93234.97
2023-03-31T07:18:02.351Z,93234.69
2023-03-31T07:20:32.858Z,93224.41
2023-03-31T07:23:00.464Z,93224.53
2023-03-31T07:25:27.852Z,93222.88
2023-03-31T07:27:56.070Z,93210.78
2023-03-31T07:30:24.772Z,93194.16
2023-03-31T07:32:52.883Z,93193.34
2023-03-31T07:35:21.982Z,93189.94
2023-03-31T07:37:51.603Z,93182.22
2023-03-31T07:40:25.278Z,93187.59
2023-03-31T07:42:53.932Z,93185.75
2023-03-31T07:45:24.161Z,93183.19
2023-03-31T07:47:52.197Z,93172.78
2023-03-31T07:50:21.344Z,93170.31
2023-03-31T07:52:48.960Z,93175.50
2023-03-31T07:55:16.913Z,93181.41
2023-03-31T07:57:46.439Z,93169.09
2023-03-31T08:00:16.078Z,93165.00
2023-03-31T08:02:45.248Z,93171.25
2023-03-31T08:05:19.168Z,93159.25
2023-03-31T08:07:49.319Z,93170.78
2023-03-31T08:10:22.884Z,93163.47
2023-03-31T08:12:51.338Z,93159.94
2023-03-31T08:15:18.896Z,93166.03
2023-03-31T08:17:46.621Z,93152.81
2023-03-31T08:20:14.721Z,93144.34
2023-03-31T08:22:43.644Z,93147.28
2023-03-31T08:25:11.428Z,93138.88
2023-03-31T08:27:41.017Z,93136.72
2023-03-31T08:30:10.814Z,93141.47
2023-03-31T08:32:39.224Z,93129.88
2023-03-31T08:35:07.547Z,93125.13
2023-03-31T08:37:34.987Z,93129.88
2023-03-31T08:40:05.523Z,93122.78
2023-03-31T08:42:35.754Z,93134.63
2023-03-31T08:45:26.234Z,93126.97
2023-03-31T08:48:06.612Z,93119.91
2023-03-31T08:50:41.341Z,93116.16
2023-03-31T08:53:21.294Z,93116.69
2023-03-31T08:55:51.966Z,93116.69
2023-03-31T08:58:29.156Z,93115.38
2023-03-31T09:01:17.331Z,93114.12
2023-03-31T09:04:16.309Z,93112.75
2023-03-31T09:06:59.597Z,93113.78
2023-03-31T09:09:46.917Z,93100.72
2023-03-31T09:12:23.778Z,93093.00
2023-03-31T09:14:59.385Z,93089.31
2023-03-31T09:17:31.490Z,93069.22
2023-03-31T09:20:14.889Z,93087.44
2023-03-31T09:22:48.223Z,93088.13
2023-03-31T09:25:21.773Z,93081.56
2023-03-31T09:27:52.381Z,93075.09
2023-03-31T09:30:27.639Z,93085.69
2023-03-31T09:33:32.314Z,93084.94
2023-03-31T09:36:01.183Z,93080.16
2023-03-31T09:38:31.338Z,93083.44
2023-03-31T09:41:01.695Z,93085.19
2023-03-31T09:43:31.766Z,93080.41
2023-03-31T09:46:09.218Z,93078.44
2023-03-31T09:48:39.016Z,93067.97
2023-03-31T09:51:17.263Z,93062.84
2023-03-31T09:53:54.203Z,93065.19
2023-03-31T09:56:41.948Z,93068.72
2023-03-31T09:59:41.517Z,93043.25
2023-03-31T10:02:35.965Z,93041.91
2023-03-31T10:05:08.865Z,93042.63
2023-03-31T10:07:36.523Z,93041.28
2023-03-31T10:10:15.201Z,93027.44
2023-03-31T10:12:52.863Z,93024.25
2023-03-31T10:15:27.020Z,93023.47
2023-03-31T10:17:58.840Z,93025.75
2023-03-31T10:20:38.597Z,93020.88
2023-03-31T10:23:38.693Z,93018.34
2023-03-31T10:26:06.814Z,93013.28
2023-03-31T10:28:36.174Z,93006.56
2023-03-31T10:31:04.955Z,93003.50
2023-03-31T10:33:35.335Z,92985.50
2023-03-31T10:36:10.662Z,92997.75
2023-03-31T10:38:43.769Z,92996.84
2023-03-31T10:41:12.714Z,93000.47
2023-03-31T10:43:43.322Z,92995.06
2023-03-31T10:46:12.587Z,93000.12
2023-03-31T10:48:42.474Z,93008.00
2023-03-31T10:51:16.529Z,93009.13
2023-03-31T10:53:47.054Z,93013.22
2023-03-31T10:56:29.858Z,93012.06
2023-03-31T10:59:06.726Z,93030.06
2023-03-31T11:02:12.343Z,93017.38
2023-03-31T11:05:13.624Z,93023.03
2023-03-31T11:07:40.942Z,93007.59
2023-03-31T11:10:30.569Z,93004.06
2023-03-31T11:13:00.858Z,93014.00
2023-03-31T11:15:34.331Z,93001.63
2023-03-31T11:18:31.073Z,92994.94
2023-03-31T11:21:23.941Z,92993.91
2023-03-31T11:24:20.013Z,92994.00
2023-03-31T11:26:50.773Z,92982.78
2023-03-31T11:29:38.815Z,92970.41
2023-03-31T11:32:25.263Z,92973.81
2023-03-31T11:35:08.116Z,92972.63
2023-03-31T11:38:30.200Z,92967.44
2023-03-31T11:41:06.950Z,92962.31
2023-03-31T11:43:46.560Z,92959.69
2023-03-31T11:46:20.727Z,92959.41
2023-03-31T11:48:57.613Z,92948.88
2023-03-31T11:51:39.819Z,92942.25
2023-03-31T11:54:12.459Z,92944.06
2023-03-31T11:56:41.752Z,92936.97
2023-03-31T11:59:15.051Z,92935.03
2023-03-31T12:02:02.658Z,92936.63
2023-03-31T12:04:38.499Z,92926.13
2023-03-31T12:07:35.207Z,92922.63
2023-03-31T12:10:29.745Z,92922.00
2023-03-31T12:13:14.652Z,92907.31
2023-03-31T12:15:52.097Z,92902.97
2023-03-31T12:18:25.189Z,92903.72
2023-03-31T12:20:56.860Z,92900.53
2023-03-31T12:23:29.074Z,92893.94
2023-03-31T12:26:08.914Z,92885.72
2023-03-31T12:28:38.913Z,92892.84
2023-03-31T12:31:10.209Z,92882.72
2023-03-31T12:33:42.740Z,92883.84
2023-03-31T12:36:16.471Z,92882.97
2023-03-31T12:39:16.699Z,92890.53
2023-03-31T12:42:11.791Z,92884.66
2023-03-31T12:44:39.104Z,92876.75
2023-03-31T12:47:34.706Z,92876.97
2023-03-31T12:50:39.652Z,92871.31
2023-03-31T12:53:22.507Z,92885.62
2023-03-31T12:55:54.774Z,92882.91
2023-03-31T12:58:26.982Z,92877.41
2023-03-31T13:01:16.622Z,92860.97
2023-03-31T13:04:04.704Z,92850.34
2023-03-31T13:06:31.974Z,92854.09
2023-03-31T13:09:04.833Z,92845.66
2023-03-31T13:11:36.330Z,92840.47
2023-03-31T13:14:06.013Z,92844.00
2023-03-31T13:16:38.695Z,92827.59
2023-03-31T13:19:06.880Z,92816.00
2023-03-31T13:21:53.545Z,92815.69
2023-03-31T13:24:28.444Z,92813.00
2023-03-31T13:26:59.324Z,92804.50
2023-03-31T13:29:41.958Z,92798.41
2023-03-31T13:32:24.441Z,92789.66
2023-03-31T13:35:18.781Z,92771.25
2023-03-31T13:38:01.228Z,92767.06
2023-03-31T13:40:58.080Z,92754.13
2023-03-31T13:44:08.484Z,92756.88
2023-03-31T13:46:51.322Z,92755.38
2023-03-31T13:49:46.716Z,92747.00
2023-03-31T13:52:21.044Z,92744.72
2023-03-31T13:55:22.749Z,92737.75
2023-03-31T13:58:24.958Z,92736.38
2023-03-31T14:01:16.805Z,92730.78
2023-03-31T14:04:01.349Z,92729.06
2023-03-31T14:06:47.326Z,92726.50
2023-03-31T14:09:41.436Z,92722.78
2023-03-31T14:12:34.882Z,92724.84
2023-03-31T14:15:03.828Z,92722.09
2023-03-31T14:17:36.077Z,92713.06
2023-03-31T14:20:29.992Z,92712.94
2023-03-31T14:23:12.837Z,92701.53
2023-03-31T14:25:50.465Z,92710.66
2023-03-31T14:28:37.571Z,92718.97
2023-03-31T14:31:20.601Z,92709.50
2023-03-31T14:34:16.403Z,92713.38
2023-03-31T14:37:00.742Z,92709.91
2023-03-31T14:39:33.151Z,92714.69
2023-03-31T14:42:06.082Z,92700.38
2023-03-31T14:44:35.130Z,92707.00
2023-03-31T14:47:03.076Z,92696.78
2023-03-31T14:49:37.098Z,92700.28
2023-03-31T14:52:20.160Z,92688.22
2023-03-31T14:54:47.988Z,92695.38
2023-03-31T14:57:24.709Z,92685.69
2023-03-31T14:59:54.882Z,92686.09
2023-03-31T15:02:35.444Z,92684.81
2023-03-31T15:05:09.897Z,92673.12
2023-03-31T15:07:40.654Z,92661.63
2023-03-31T15:10:08.544Z,92650.81
2023-03-31T15:12:38.408Z,92652.16
2023-03-31T15:15:07.749Z,92650.06
2023-03-31T15:17:41.454Z,92656.38
2023-03-31T15:20:45.322Z,92652.87
2023-03-31T15:23:28.281Z,92650.84
2023-03-31T15:26:03.480Z,92649.72
2023-03-31T15:28:40.179Z,92656.41
2023-03-31T15:31:10.422Z,92648.25
2023-03-31T15:33:42.255Z,92642.69
2023-03-31T15:36:12.370Z,92644.34
2023-03-31T15:38:40.064Z,92648.84
2023-03-31T15:41:15.127Z,92643.56
2023-03-31T15:43:47.667Z,92649.50
2023-03-31T15:46:24.655Z,92645.41
2023-03-31T15:48:54.581Z,92652.09
2023-03-31T15:51:30.267Z,92649.78
2023-03-31T15:53:57.980Z,92651.34
2023-03-31T15:56:32.436Z,92659.16
2023-03-31T15:59:05.092Z,92651.09
2023-03-31T16:01:46.750Z,92648.06
2023-03-31T16:04:15.972Z,92658.81
2023-03-31T16:06:56.962Z,92658.09
2023-03-31T16:09:53.868Z,92655.16
2023-03-31T16:12:48.915Z,92657.09
2023-03-31T16:15:23.721Z,92658.63
2023-03-31T16:17:56.004Z,92658.75
2023-03-31T16:20:29.274Z,92661.31
2023-03-31T16:23:01.270Z,92658.72
2023-03-31T16:25:32.084Z,92656.91
2023-03-31T16:28:02.128Z,92661.81
2023-03-31T16:30:38.359Z,92652.22
2023-03-31T16:33:09.647Z,92651.16
2023-03-31T16:35:40.186Z,92662.88
2023-03-31T16:38:09.077Z,92674.97
2023-03-31T16:40:39.490Z,92664.47
2023-03-31T16:43:17.591Z,92659.94
2023-03-31T16:45:48.098Z,92667.25
2023-03-31T16:48:17.686Z,92674.13
2023-03-31T16:50:47.730Z,92681.59
2023-03-31T16:53:16.949Z,92679.81
2023-03-31T16:55:44.922Z,92680.16
2023-03-31T16:58:13.168Z,92674.72
2023-03-31T17:00:41.666Z,92680.53
2023-03-31T17:03:10.545Z,92678.41
2023-03-31T17:05:43.576Z,92670.09
2023-03-31T17:08:11.985Z,92669.13
2023-03-31T17:10:41.230Z,92666.34
2023-03-31T17:13:09.541Z,92656.88
2023-03-31T17:15:37.982Z,92668.34
2023-03-31T17:18:07.505Z,92674.84
2023-03-31T17:20:35.111Z,92678.34
2023-03-31T17:23:02.696Z,92681.78
2023-03-31T17:25:30.885Z,92678.53
2023-03-31T17:28:01.332Z,92684.69
2023-03-31T17:30:29.624Z,92687.62
2023-03-31T17:32:58.773Z,92696.16
2023-03-31T17:35:26.065Z,92696.63
2023-03-31T17:37:54.069Z,92682.47
2023-03-31T17:40:24.704Z,92689.88
2023-03-31T17:42:52.768Z,92683.59
2023-03-31T17:45:20.183Z,92682.81
2023-03-31T17:47:48.026Z,92687.81
2023-03-31T17:50:15.553Z,92690.16
2023-03-31T17:52:43.903Z,92689.16
2023-03-31T17:55:11.826Z,92685.97
2023-03-31T17:57:40.725Z,92686.25
2023-03-31T18:00:10.094Z,92695.19
2023-03-31T18:02:39.697Z,92689.66
2023-03-31T18:05:08.579Z,92685.19
2023-03-31T18:07:36.741Z,92694.38
2023-03-31T18:10:05.585Z,92688.34
2023-03-31T18:12:34.538Z,92689.63
2023-03-31T18:15:03.088Z,92697.78
2023-03-31T18:17:31.473Z,92697.19
2023-03-31T18:19:59.441Z,92693.84
2023-03-31T18:22:27.485Z,92699.31
2023-03-31T18:24:55.613Z,92700.88
2023-03-31T18:27:24.979Z,92701.41
2023-03-31T18:29:52.731Z,92704.25
2023-03-31T18:32:20.416Z,92708.66
2023-03-31T18:34:48.522Z,92702.13
2023-03-31T18:37:15.929Z,92701.09
2023-03-31T18:39:43.608Z,92693.22
2023-03-31T18:42:10.951Z,92698.38
2023-03-31T18:44:39.481Z,92687.91
2023-03-31T18:47:07.395Z,92680.91
2023-03-31T18:49:34.977Z,92680.66
2023-03-31T18:52:04.461Z,92690.41
2023-03-31T18:54:32.484Z,92674.31
2023-03-31T18:57:01.024Z,92683.94
2023-03-31T18:59:28.492Z,92680.22
2023-03-31T19:01:56.413Z,92678.69
2023-03-31T19:04:23.853Z,92682.75
2023-03-31T19:06:52.385Z,92667.34
2023-03-31T19:09:20.671Z,92665.91
2023-03-31T19:11:47.976Z,92662.41
2023-03-31T19:14:17.321Z,92671.31
2023-03-31T19:16:45.237Z,92678.13
2023-03-31T19:19:12.675Z,92663.13
2023-03-31T19:21:40.958Z,92666.78
2023-03-31T19:24:09.821Z,92669.31
2023-03-31T19:26:37.571Z,92671.22
2023-03-31T19:29:05.602Z,92653.97
2023-03-31T19:31:38.544Z,92668.19
2023-03-31T19:34:06.597Z,92668.31
2023-03-31T19:36:35.200Z,92659.38
2023-03-31T19:39:04.668Z,92668.03
2023-03-31T19:41:32.019Z,92655.25
2023-03-31T19:43:59.773Z,92648.81
2023-03-31T19:46:27.872Z,92661.53
2023-03-31T19:48:55.356Z,92660.56
2023-03-31T19:51:23.016Z,92654.75
2023-03-31T19:53:50.397Z,92661.84
2023-03-31T19:56:18.166Z,92658.44
2023-03-31T19:58:47.237Z,92654.25
2023-03-31T20:01:20.515Z,92641.13
2023-03-31T20:03:53.245Z,92669.37
2023-03-31T20:06:24.496Z,92653.56
2023-03-31T20:08:54.395Z,92657.84
2023-03-31T20:11:22.222Z,92666.97
2023-03-31T20:13:49.725Z,92670.72
2023-03-31T20:16:20.845Z,92676.19
2023-03-31T20:18:56.951Z,92682.41
2023-03-31T20:21:27.403Z,92669.47
2023-03-31T20:23:55.060Z,92666.59
2023-03-31T20:26:25.327Z,92676.00
2023-03-31T20:28:55.120Z,92679.72
2023-03-31T20:31:36.833Z,92670.19
2023-03-31T20:34:06.911Z,92665.69
2023-03-31T20:36:34.513Z,92669.47
2023-03-31T20:39:04.432Z,92656.81
2023-03-31T20:41:33.932Z,92660.56
2023-03-31T20:44:01.797Z,92656.28
2023-03-31T20:46:29.824Z,92653.97
2023-03-31T20:48:58.588Z,92648.84
2023-03-31T20:51:34.127Z,92642.91
2023-03-31T20:54:02.058Z,92645.09
2023-03-31T20:56:49.802Z,92637.28
2023-03-31T20:59:17.685Z,92641.13
2023-03-31T21:01:47.979Z,92647.22
2023-03-31T21:04:17.284Z,92643.19
2023-03-31T21:06:47.303Z,92646.78
2023-03-31T21:09:16.444Z,92640.31
2023-03-31T21:11:44.168Z,92627.34
2023-03-31T21:14:14.686Z,92650.03
2023-03-31T21:16:42.130Z,92642.19
2023-03-31T21:19:09.684Z,92626.41
2023-03-31T21:21:40.182Z,92634.91
2023-03-31T21:24:09.320Z,92636.00
2023-03-31T21:26:36.954Z,92635.47
2023-03-31T21:29:04.216Z,92601.75
2023-03-31T21:31:31.675Z,92627.59
2023-03-31T21:34:01.553Z,92625.50
2023-03-31T21:36:29.425Z,92629.38
2023-03-31T21:38:58.053Z,92627.47
2023-03-31T21:41:30.092Z,92622.06
2023-03-31T21:44:01.751Z,92631.53
2023-03-31T21:46:32.855Z,92632.56
2023-03-31T21:49:01.438Z,92625.13
2023-03-31T21:51:28.965Z,92623.31
2023-03-31T21:53:57.188Z,92622.69
2023-03-31T21:56:27.751Z,92611.50
2023-03-31T21:58:55.182Z,92611.94
2023-03-31T22:01:23.764Z,92607.56
2023-03-31T22:03:52.056Z,92605.56
2023-03-31T22:06:19.686Z,92596.19
2023-03-31T22:08:47.088Z,92594.75
2023-03-31T22:11:15.294Z,92594.75
2023-03-31T22:13:42.633Z,92592.41
2023-03-31T22:16:28.127Z,92592.97
2023-03-31T22:18:55.765Z,92588.03
2023-03-31T22:21:39.523Z,92586.13
2023-03-31T22:24:11.425Z,92601.97
2023-03-31T22:26:38.702Z,92583.91
2023-03-31T22:29:06.150Z,92591.44
2023-03-31T22:31:33.894Z,92598.47
2023-03-31T22:34:01.284Z,92587.59
2023-03-31T22:36:28.753Z,92576.84
2023-03-31T22:38:56.848Z,92573.94
2023-03-31T22:41:24.065Z,92581.16
2023-03-31T22:43:51.643Z,92594.44
2023-03-31T22:46:19.393Z,92576.09
2023-03-31T22:48:50.527Z,92576.66
2023-03-31T22:51:18.082Z,92577.31
2023-03-31T22:53:51.148Z,92585.63
2023-03-31T22:56:19.481Z,92597.97
2023-03-31T22:58:48.039Z,92606.13
2023-03-31T23:01:17.960Z,92586.78
2023-03-31T23:03:45.995Z,92589.31
2023-03-31T23:06:14.756Z,92584.31
2023-03-31T23:08:44.883Z,92583.06
2023-03-31T23:11:13.194Z,92581.69
2023-03-31T23:13:41.257Z,92582.16
2023-03-31T23:16:17.219Z,92578.69
2023-03-31T23:18:47.059Z,92568.69
2023-03-31T23:21:16.358Z,92565.69
2023-03-31T23:23:43.640Z,92558.97
2023-03-31T23:26:12.951Z,92553.09
2023-03-31T23:28:40.190Z,92553.56
2023-03-31T23:31:07.574Z,92552.69
2023-03-31T23:33:35.104Z,92561.34
2023-03-31T23:36:05.513Z,92555.50
2023-03-31T23:38:34.145Z,92557.22
2023-03-31T23:41:03.729Z,92561.78
2023-03-31T23:43:30.933Z,92555.19
2023-03-31T23:45:59.536Z,92551.06
2023-03-31T23:48:27.148Z,92543.44
2023-03-31T23:50:54.514Z,92542.25
2023-03-31T23:53:22.189Z,92537.28
2023-03-31T23:55:58.470Z,92532.13
2023-03-31T23:58:26.786Z,92528.84
